Pottsboro, Texas
Current Conditions -  °F | °C
As of 8:35 AM on Friday 28 Nov 2014 (Local Time) from KGYI Reporting Station
Clear Clear  
Wind Chill: 44°   Ceiling: Unl
Heat Index: 49°   Visibility: 10mi
Dew Point: 36°   Wind: 13mph
Humidity: 61%   Direction: 180°S
Pressure: 30.23"   Gusts: NA
Location:  33.76°N, 96.67°W
Report Text: KGYI 281435Z AUTO 18011KT 10SM CLR 09/02 A3023 RMK AO2 T00940023
Loading
Personal Weather Stations






























Interactive Weather Map New forecast layout! Learn more

10-Day Weather Forecast

Advertisements
Track Severe Weather on mobile